Time;durP1;ratioP1;P1;durP2;ratioP2;P2;SDS_P1;SDS_P2;PMS_P1;PMS_P2;Temp;Humidity;BMP_temperature;BMP_pressure;BME280_temperature;BME280_humidity;BME280_pressure;Samples;Min_cycle;Max_cycle;Signal;HPM_P1;HPM_P2
2022/01/23 00:02:12;;;;;;;8.00;4.63;;;5.90;99.90;;;;;;5071057;28;20219;-76
2022/01/23 00:04:38;;;;;;;9.63;4.73;;;5.90;99.90;;;;;;5089459;28;20194;-75
2022/01/23 00:07:07;;;;;;;8.40;4.10;;;5.80;99.90;;;;;;5089084;28;20167;-75
2022/01/23 00:09:33;;;;;;;8.43;4.70;;;5.80;99.90;;;;;;5083333;28;20205;-76
2022/01/23 00:12:03;;;;;;;10.60;4.77;;;5.80;99.90;;;;;;5077477;28;20555;-76
2022/01/23 00:17:23;;;;;;;7.93;4.73;;;5.80;99.90;;;;;;5070004;28;20708;-75
2022/01/23 00:19:54;;;;;;;7.63;4.33;;;5.80;99.90;;;;;;5066942;28;20216;-75
2022/01/23 00:22:22;;;;;;;10.10;5.23;;;5.80;99.90;;;;;;5076140;28;20181;-75
2022/01/23 00:32:50;;;;;;;12.47;4.90;;;5.80;99.90;;;;;;5069778;28;20555;-75
2022/01/23 00:35:17;;;;;;;10.67;4.47;;;5.80;99.90;;;;;;5079128;28;20269;-75
2022/01/23 00:37:43;;;;;;;8.30;4.37;;;5.80;99.90;;;;;;5081072;28;20174;-75
2022/01/23 00:40:09;;;;;;;8.53;4.50;;;5.80;99.90;;;;;;5064185;28;20260;-75
2022/01/23 00:42:35;;;;;;;9.77;4.60;;;5.80;99.90;;;;;;5074506;28;20712;-75
2022/01/23 00:47:47;;;;;;;8.53;3.93;;;5.80;99.90;;;;;;5086809;28;20182;-75
2022/01/23 00:50:12;;;;;;;7.43;4.43;;;5.80;99.90;;;;;;5082244;28;20186;-75
2022/01/23 00:52:38;;;;;;;9.93;3.87;;;5.80;99.90;;;;;;5068486;28;20185;-74
2022/01/23 00:55:04;;;;;;;7.93;4.07;;;5.80;99.90;;;;;;5086725;28;20234;-75
2022/01/23 00:57:33;;;;;;;9.63;3.73;;;5.80;99.90;;;;;;5086858;28;20568;-74
2022/01/23 00:59:59;;;;;;;5.93;3.93;;;5.80;99.90;;;;;;5072841;28;20198;-74
2022/01/23 01:02:25;;;;;;;5.73;3.70;;;5.70;99.90;;;;;;5067338;28;20674;-74
2022/01/23 01:04:51;;;;;;;7.30;3.50;;;5.70;99.90;;;;;;5067916;28;20206;-74
2022/01/23 01:07:18;;;;;;;10.57;3.40;;;5.70;99.90;;;;;;5077009;28;20617;-74
2022/01/23 01:09:49;;;;;;;4.73;3.40;;;5.70;99.90;;;;;;5067717;28;20194;-74
2022/01/23 01:12:20;;;;;;;8.47;3.40;;;5.70;99.90;;;;;;5073654;28;20175;-75
2022/01/23 01:30:04;;;;;;;5.10;3.33;;;5.70;99.90;;;;;;5075956;28;20182;-74
2022/01/23 01:31:23;;;;;;;7.33;3.47;;;5.60;99.90;;;;;;5076615;28;20228;-74
2022/01/23 01:34:02;;;;;;;4.73;3.10;;;5.50;99.90;;;;;;5069316;28;20175;-74
2022/01/23 01:36:45;;;;;;;6.10;3.80;;;5.50;99.90;;;;;;5067367;28;20177;-75
2022/01/23 01:39:11;;;;;;;6.67;3.63;;;5.50;99.90;;;;;;5075941;28;20253;-74
2022/01/23 01:41:39;;;;;;;6.17;4.00;;;5.50;99.90;;;;;;5073259;28;20184;-75
2022/01/23 01:44:05;;;;;;;4.50;3.33;;;5.50;99.90;;;;;;5074041;28;20683;-74
2022/01/23 01:46:31;;;;;;;5.80;3.77;;;5.50;99.90;;;;;;5078930;28;20173;-74
2022/01/23 01:48:58;;;;;;;7.13;4.17;;;5.40;99.90;;;;;;5078764;28;20686;-74
2022/01/23 01:51:24;;;;;;;7.00;4.00;;;5.40;99.90;;;;;;5081618;28;20217;-74
2022/01/23 01:53:54;;;;;;;7.13;4.03;;;5.40;99.90;;;;;;5074496;28;20170;-74
2022/01/23 01:56:20;;;;;;;6.70;3.77;;;5.40;99.90;;;;;;5068018;28;20542;-74
2022/01/23 02:09:16;;;;;;;7.17;4.03;;;5.40;99.90;;;;;;5068644;28;20185;-74
2022/01/23 02:15:12;;;;;;;11.13;3.97;;;5.40;99.90;;;;;;5041762;28;20206;-74
2022/01/23 02:18:00;;;;;;;7.63;3.80;;;5.40;99.90;;;;;;5082859;28;20258;-74
2022/01/23 02:55:42;;;;;;;6.57;4.17;;;5.30;99.90;;;;;;5080820;28;20256;-75
2022/01/23 02:58:10;;;;;;;7.50;4.20;;;5.30;99.90;;;;;;5082137;28;20264;-74
2022/01/23 03:00:48;;;;;;;6.73;4.13;;;5.30;99.90;;;;;;5077329;28;20198;-74
2022/01/23 03:03:21;;;;;;;7.23;4.10;;;5.30;99.90;;;;;;5075621;28;20231;-74
2022/01/23 03:06:08;;;;;;;8.83;4.30;;;5.30;99.90;;;;;;5078958;28;20208;-74
2022/01/23 03:08:56;;;;;;;11.17;5.03;;;5.30;99.90;;;;;;5085312;28;20171;-75
2022/01/23 03:14:01;;;;;;;6.03;4.50;;;5.30;99.90;;;;;;5081142;28;20184;-75
2022/01/23 03:27:26;;;;;;;6.53;4.30;;;5.20;99.90;;;;;;5075156;28;20301;-74
2022/01/23 03:30:14;;;;;;;7.03;4.40;;;5.20;99.90;;;;;;5070802;28;20217;-74
2022/01/23 03:32:45;;;;;;;8.30;4.33;;;5.20;99.90;;;;;;5079116;28;20190;-75
2022/01/23 03:35:10;;;;;;;6.43;4.67;;;5.20;99.90;;;;;;5085953;28;20261;-75
2022/01/23 03:37:36;;;;;;;8.10;4.30;;;5.20;99.90;;;;;;5074721;28;20269;-74
2022/01/23 03:40:04;;;;;;;8.07;4.67;;;5.20;99.90;;;;;;5079569;28;20198;-75
2022/01/23 03:42:33;;;;;;;7.20;5.00;;;5.20;99.90;;;;;;5078008;28;20181;-75
2022/01/23 03:45:38;;;;;;;6.30;4.73;;;5.20;99.90;;;;;;5081479;28;20633;-75
2022/01/23 03:48:02;;;;;;;7.23;4.77;;;5.20;99.90;;;;;;5088441;28;20287;-75
2022/01/23 03:50:28;;;;;;;7.07;4.90;;;5.20;99.90;;;;;;5082241;28;20191;-75
2022/01/23 03:52:53;;;;;;;8.97;4.67;;;5.20;99.90;;;;;;5068916;28;20190;-74
2022/01/23 03:55:20;;;;;;;7.00;4.77;;;5.20;99.90;;;;;;5072421;28;20436;-74
2022/01/23 03:57:45;;;;;;;7.63;4.70;;;5.20;99.90;;;;;;5086221;28;20171;-74
2022/01/23 04:00:15;;;;;;;10.07;4.97;;;5.20;99.90;;;;;;5083301;28;20621;-74
2022/01/23 04:02:41;;;;;;;7.10;4.70;;;5.20;99.90;;;;;;5082916;28;20740;-74
2022/01/23 04:05:07;;;;;;;9.37;4.60;;;5.20;99.90;;;;;;5079033;28;20206;-74
2022/01/23 04:07:34;;;;;;;8.67;4.90;;;5.20;99.90;;;;;;5074693;28;20181;-74
2022/01/23 04:10:00;;;;;;;8.63;5.20;;;5.20;99.90;;;;;;5086469;28;20190;-74
2022/01/23 05:00:34;;;;;;;10.13;5.13;;;5.20;99.90;;;;;;5071262;28;20271;-75
2022/01/23 05:04:00;;;;;;;7.53;4.73;;;5.20;99.90;;;;;;5069580;28;20178;-74
2022/01/23 05:06:06;;;;;;;7.20;4.77;;;5.20;99.90;;;;;;5077361;28;20202;-74
2022/01/23 05:08:35;;;;;;;11.13;5.67;;;5.20;99.90;;;;;;5079364;28;20174;-74
2022/01/23 05:11:06;;;;;;;11.27;5.30;;;5.20;99.90;;;;;;5076635;28;20221;-74
2022/01/23 05:13:32;;;;;;;8.67;4.90;;;5.20;99.90;;;;;;5073126;28;20265;-74
2022/01/23 05:15:58;;;;;;;9.70;5.13;;;5.20;99.90;;;;;;5087404;28;20264;-75
2022/01/23 05:18:24;;;;;;;12.00;5.97;;;5.20;99.90;;;;;;5084419;28;20171;-74
2022/01/23 05:20:59;;;;;;;6.37;5.27;;;5.20;99.90;;;;;;5080230;28;20297;-74
2022/01/23 05:23:25;;;;;;;8.67;5.60;;;5.20;99.90;;;;;;5081648;28;20225;-74
2022/01/23 05:25:50;;;;;;;8.17;5.53;;;5.20;99.90;;;;;;5077614;28;20632;-74
2022/01/23 05:28:16;;;;;;;8.37;5.67;;;5.20;99.90;;;;;;5087454;28;20175;-74
2022/01/23 05:30:41;;;;;;;8.57;5.10;;;5.20;99.90;;;;;;5069017;28;20211;-74
2022/01/23 05:33:09;;;;;;;11.50;6.10;;;5.20;99.90;;;;;;5078751;28;20666;-74
2022/01/23 05:35:34;;;;;;;11.77;5.83;;;5.10;99.90;;;;;;5084858;28;20257;-74
2022/01/23 05:38:00;;;;;;;7.83;5.40;;;5.10;99.90;;;;;;5086248;28;20285;-74
2022/01/23 05:40:28;;;;;;;11.03;6.00;;;5.20;99.90;;;;;;5079663;28;20202;-74
2022/01/23 05:42:53;;;;;;;9.43;5.33;;;5.10;99.90;;;;;;5080554;28;20214;-74
2022/01/23 05:45:19;;;;;;;10.07;5.27;;;5.10;99.90;;;;;;5085715;28;20237;-74
2022/01/23 05:47:45;;;;;;;8.13;6.03;;;5.20;99.90;;;;;;5079947;28;20182;-74
2022/01/23 05:50:11;;;;;;;12.40;6.43;;;5.20;99.90;;;;;;5072129;28;20213;-74
2022/01/23 05:52:36;;;;;;;13.40;6.10;;;5.20;99.90;;;;;;5077757;28;20274;-74
2022/01/23 05:55:03;;;;;;;12.80;5.63;;;5.20;99.90;;;;;;5068884;28;20179;-74
2022/01/23 05:57:29;;;;;;;8.13;5.93;;;5.20;99.90;;;;;;5066160;28;20197;-75
2022/01/23 05:59:54;;;;;;;9.70;5.90;;;5.20;99.90;;;;;;5068343;28;20195;-74
2022/01/23 06:02:20;;;;;;;9.20;5.83;;;5.20;99.90;;;;;;5083954;28;20638;-74
2022/01/23 06:04:45;;;;;;;8.87;6.80;;;5.20;99.90;;;;;;5078108;28;20301;-75
2022/01/23 06:07:11;;;;;;;9.30;5.97;;;5.20;99.90;;;;;;5067942;28;20216;-75
2022/01/23 06:09:39;;;;;;;9.97;6.43;;;5.20;99.90;;;;;;5081749;28;20194;-75
2022/01/23 06:12:05;;;;;;;11.27;6.63;;;5.20;99.90;;;;;;5088210;28;20174;-76
2022/01/23 06:14:31;;;;;;;9.17;5.77;;;5.20;99.90;;;;;;5081313;28;20177;-75
2022/01/23 06:16:56;;;;;;;10.27;6.40;;;5.20;99.90;;;;;;5078822;28;20178;-75
2022/01/23 06:19:22;;;;;;;7.93;6.10;;;5.20;99.90;;;;;;5070619;28;20274;-75
2022/01/23 06:21:48;;;;;;;8.03;5.57;;;5.20;99.90;;;;;;5069284;28;20655;-75
2022/01/23 06:24:36;;;;;;;8.73;5.97;;;5.20;99.90;;;;;;5080507;28;20194;-75
2022/01/23 06:27:01;;;;;;;10.73;6.03;;;5.20;99.90;;;;;;5090783;28;20181;-75
2022/01/23 06:29:31;;;;;;;7.73;6.20;;;5.20;99.90;;;;;;5089960;28;20174;-75
2022/01/23 06:31:58;;;;;;;9.90;5.87;;;5.30;99.90;;;;;;5081640;28;20625;-75
2022/01/23 06:34:24;;;;;;;6.93;5.50;;;5.20;99.90;;;;;;5084567;28;20254;-76
2022/01/23 06:36:52;;;;;;;8.40;5.97;;;5.20;99.90;;;;;;5076908;28;20174;-75
2022/01/23 06:39:19;;;;;;;9.60;5.83;;;5.30;99.90;;;;;;5080474;28;20167;-75
2022/01/23 06:41:45;;;;;;;6.90;5.70;;;5.20;99.90;;;;;;5076149;28;20178;-75
2022/01/23 06:44:11;;;;;;;9.87;6.43;;;5.20;99.90;;;;;;5072299;28;20289;-75
2022/01/23 06:46:41;;;;;;;9.53;5.90;;;5.30;99.90;;;;;;5078212;28;20170;-75
2022/01/23 06:49:07;;;;;;;13.70;5.90;;;5.20;99.90;;;;;;5080078;28;20171;-75
2022/01/23 06:51:33;;;;;;;6.50;5.13;;;5.20;99.90;;;;;;5071811;28;20240;-75
2022/01/23 06:53:59;;;;;;;8.17;5.60;;;5.20;99.90;;;;;;5090806;28;20260;-75
2022/01/23 06:56:25;;;;;;;10.33;6.07;;;5.20;99.90;;;;;;5072974;28;20171;-76
2022/01/23 06:58:50;;;;;;;8.37;5.80;;;5.20;99.90;;;;;;5067375;28;20231;-75
2022/01/23 07:01:16;;;;;;;7.77;5.67;;;5.20;99.90;;;;;;5071510;28;20269;-75
2022/01/23 07:03:42;;;;;;;9.27;5.67;;;5.20;99.90;;;;;;5075754;28;20175;-75
2022/01/23 07:06:08;;;;;;;9.77;6.30;;;5.20;99.90;;;;;;5080999;28;20198;-75
2022/01/23 07:08:33;;;;;;;7.87;5.40;;;5.20;99.90;;;;;;5087759;28;20174;-76
2022/01/23 07:10:59;;;;;;;8.30;5.67;;;5.20;99.90;;;;;;5073029;28;20186;-75
2022/01/23 07:13:25;;;;;;;11.07;6.20;;;5.20;99.90;;;;;;5075802;28;20162;-75
2022/01/23 07:15:51;;;;;;;7.10;5.90;;;5.20;99.90;;;;;;5081625;28;20182;-75
2022/01/23 07:18:18;;;;;;;8.13;5.57;;;5.20;99.90;;;;;;5087304;28;20178;-75
2022/01/23 07:20:44;;;;;;;8.03;5.53;;;5.20;99.90;;;;;;5074763;28;20272;-75
2022/01/23 07:23:10;;;;;;;9.63;5.60;;;5.30;99.90;;;;;;5076051;28;20188;-76
2022/01/23 07:25:36;;;;;;;8.97;5.40;;;5.20;99.90;;;;;;5068900;28;20332;-75
2022/01/23 07:28:03;;;;;;;7.40;5.30;;;5.20;99.90;;;;;;5079814;28;20274;-75
2022/01/23 07:32:55;;;;;;;8.13;5.80;;;5.20;99.90;;;;;;5069571;28;20524;-76
2022/01/23 07:35:20;;;;;;;10.97;5.57;;;5.20;99.90;;;;;;5078542;28;20182;-76
2022/01/23 07:37:46;;;;;;;7.63;5.10;;;5.20;99.90;;;;;;5083063;28;20183;-76
2022/01/23 07:40:12;;;;;;;8.43;5.90;;;5.20;99.90;;;;;;5079454;28;20191;-75
2022/01/23 07:42:39;;;;;;;8.83;5.20;;;5.20;99.90;;;;;;5072683;28;20270;-76
2022/01/23 07:45:05;;;;;;;8.53;5.27;;;5.20;99.90;;;;;;5071911;28;20222;-75
2022/01/23 07:47:31;;;;;;;9.27;5.37;;;5.20;99.90;;;;;;5071100;28;20171;-76
2022/01/23 07:49:57;;;;;;;9.03;5.60;;;5.20;99.90;;;;;;5068966;28;20264;-75
2022/01/23 07:52:22;;;;;;;8.00;5.50;;;5.20;99.90;;;;;;5074796;28;20190;-76
2022/01/23 07:54:48;;;;;;;6.63;5.33;;;5.20;99.90;;;;;;5069810;28;20190;-75
2022/01/23 07:57:13;;;;;;;9.97;5.27;;;5.20;99.90;;;;;;5070060;28;20175;-75
2022/01/23 07:59:39;;;;;;;10.27;5.60;;;5.20;99.90;;;;;;5076952;28;20193;-74
2022/01/23 08:02:05;;;;;;;8.17;5.40;;;5.20;99.90;;;;;;5072428;28;20178;-74
2022/01/23 08:04:31;;;;;;;7.97;5.10;;;5.20;99.90;;;;;;5081221;28;20226;-75
2022/01/23 08:07:09;;;;;;;11.13;4.77;;;5.10;99.90;;;;;;5089674;28;20174;-75
2022/01/23 08:09:36;;;;;;;10.53;6.00;;;5.20;99.90;;;;;;5075432;28;20269;-75
2022/01/23 08:12:02;;;;;;;6.20;5.40;;;5.20;99.90;;;;;;5066710;28;20178;-74
2022/01/23 08:14:27;;;;;;;9.33;5.80;;;5.20;99.90;;;;;;5074013;28;20171;-74
2022/01/23 08:16:53;;;;;;;7.93;5.57;;;5.10;99.90;;;;;;5077166;28;20170;-74
2022/01/23 08:19:18;;;;;;;11.03;5.37;;;5.10;99.90;;;;;;5068678;28;20217;-74
2022/01/23 08:21:44;;;;;;;9.37;5.30;;;5.10;99.90;;;;;;5082709;28;20659;-74
2022/01/23 08:24:11;;;;;;;10.27;6.03;;;5.20;99.90;;;;;;5078572;28;20244;-74
2022/01/23 08:26:37;;;;;;;9.27;6.23;;;5.20;99.90;;;;;;5071733;28;20175;-75
2022/01/23 08:29:04;;;;;;;10.73;6.20;;;5.20;99.90;;;;;;5067188;28;20265;-74
2022/01/23 08:31:30;;;;;;;10.10;6.47;;;5.20;99.90;;;;;;5079387;28;20217;-74
2022/01/23 08:33:55;;;;;;;8.57;5.97;;;5.20;99.90;;;;;;5084168;28;20174;-74
2022/01/23 08:36:21;;;;;;;11.93;6.23;;;5.20;99.90;;;;;;5087728;28;20631;-74
2022/01/23 08:38:46;;;;;;;9.13;6.33;;;5.20;99.90;;;;;;5067954;28;20217;-75
2022/01/23 08:43:51;;;;;;;7.57;5.80;;;5.20;99.90;;;;;;5070651;28;20174;-74
2022/01/23 08:46:17;;;;;;;9.43;5.33;;;5.20;99.90;;;;;;5068292;28;20237;-75
2022/01/23 08:48:43;;;;;;;9.77;5.47;;;5.20;99.90;;;;;;5077903;28;20723;-74
2022/01/23 08:51:09;;;;;;;6.27;5.00;;;5.20;99.90;;;;;;5071228;28;20191;-74
2022/01/23 08:53:35;;;;;;;6.60;5.10;;;5.30;99.90;;;;;;5074303;28;20206;-74
2022/01/23 08:56:01;;;;;;;5.97;4.53;;;5.30;99.90;;;;;;5083937;28;20178;-74
2022/01/23 08:58:27;;;;;;;7.67;5.00;;;5.30;99.90;;;;;;5078663;28;20167;-74
2022/01/23 09:00:52;;;;;;;4.73;4.10;;;5.40;99.90;;;;;;5081087;28;20277;-74
2022/01/23 09:03:18;;;;;;;7.47;5.23;;;5.40;99.90;;;;;;5077644;28;20210;-75
2022/01/23 09:05:44;;;;;;;5.53;4.20;;;5.40;99.90;;;;;;5076789;28;20289;-75
2022/01/23 09:08:09;;;;;;;7.77;4.37;;;5.40;99.90;;;;;;5077024;28;20219;-74
2022/01/23 09:10:52;;;;;;;8.50;4.27;;;5.40;99.90;;;;;;5081764;28;20190;-74
2022/01/23 09:16:16;;;;;;;9.17;4.20;;;5.50;99.90;;;;;;5034130;28;20182;-74
2022/01/23 09:18:41;;;;;;;5.70;4.10;;;5.60;99.90;;;;;;5082021;28;20170;-74
2022/01/23 09:21:07;;;;;;;8.70;4.70;;;5.60;99.90;;;;;;5072242;28;20202;-74
2022/01/23 09:23:34;;;;;;;5.33;4.33;;;5.60;99.90;;;;;;5076144;28;20171;-74
2022/01/23 09:26:10;;;;;;;7.63;4.57;;;5.60;99.90;;;;;;5079841;28;20243;-74
2022/01/23 09:28:39;;;;;;;5.63;4.40;;;5.60;99.90;;;;;;5084645;28;20185;-74
2022/01/23 09:31:04;;;;;;;6.77;4.60;;;5.60;99.90;;;;;;5067612;28;20206;-74
2022/01/23 09:33:31;;;;;;;8.00;4.50;;;5.70;99.90;;;;;;5075935;28;20174;-74
2022/01/23 09:35:57;;;;;;;5.50;4.30;;;5.70;99.90;;;;;;5085473;28;20766;-74
2022/01/23 09:38:22;;;;;;;8.10;3.97;;;5.70;99.90;;;;;;5068513;28;20183;-74
2022/01/23 09:40:54;;;;;;;8.50;4.20;;;5.80;99.90;;;;;;5069510;28;20199;-74
2022/01/23 09:43:20;;;;;;;5.83;3.90;;;5.80;99.90;;;;;;5068532;28;20185;-74
2022/01/23 09:45:49;;;;;;;8.73;4.60;;;5.80;99.90;;;;;;5080190;28;20190;-74
2022/01/23 09:48:16;;;;;;;8.93;4.00;;;5.80;99.90;;;;;;5068678;28;20171;-74
2022/01/23 09:50:44;;;;;;;7.57;4.30;;;5.80;99.90;;;;;;5081373;28;20203;-74
2022/01/23 09:53:11;;;;;;;6.27;3.93;;;5.80;99.90;;;;;;5078634;28;20267;-74
2022/01/23 09:55:39;;;;;;;4.13;3.53;;;5.90;99.90;;;;;;5069406;28;20260;-74
2022/01/23 09:58:05;;;;;;;4.70;3.53;;;5.90;99.90;;;;;;5073204;28;20552;-74
2022/01/23 10:00:33;;;;;;;7.93;3.83;;;6.00;99.90;;;;;;5077227;28;20202;-74
2022/01/23 10:02:59;;;;;;;6.10;3.97;;;6.00;99.90;;;;;;5067783;28;20182;-74
2022/01/23 10:05:25;;;;;;;6.10;4.00;;;6.00;99.90;;;;;;5067633;28;20214;-75
2022/01/23 10:07:52;;;;;;;6.70;3.17;;;6.10;99.90;;;;;;5070870;28;20181;-74
2022/01/23 10:10:26;;;;;;;5.93;4.00;;;6.10;99.90;;;;;;5081492;28;20191;-74
2022/01/23 10:12:57;;;;;;;4.10;3.57;;;6.10;99.90;;;;;;5084134;28;20169;-74
2022/01/23 10:15:25;;;;;;;7.93;3.90;;;6.20;99.90;;;;;;5084077;28;20260;-75
2022/01/23 10:17:52;;;;;;;4.60;3.67;;;6.20;99.90;;;;;;5081392;28;20216;-74
2022/01/23 10:20:18;;;;;;;8.13;4.03;;;6.20;99.90;;;;;;5067339;28;20695;-74
2022/01/23 10:22:47;;;;;;;6.27;3.80;;;6.20;99.90;;;;;;5076177;28;20186;-74
2022/01/23 10:25:16;;;;;;;6.63;4.00;;;6.20;99.90;;;;;;5078856;28;20202;-74
2022/01/23 10:28:09;;;;;;;5.17;3.80;;;6.20;99.90;;;;;;5067797;28;20243;-74
2022/01/23 10:30:47;;;;;;;8.17;3.60;;;6.30;99.90;;;;;;5070584;28;20264;-74
2022/01/23 10:33:17;;;;;;;5.93;3.60;;;6.30;99.90;;;;;;5078155;28;20181;-75
2022/01/23 10:36:11;;;;;;;4.57;3.50;;;6.40;99.90;;;;;;5069339;28;20185;-74
2022/01/23 10:39:17;;;;;;;5.77;4.10;;;6.40;99.90;;;;;;5065640;28;20246;-74
2022/01/23 10:41:49;;;;;;;7.90;3.37;;;6.50;99.90;;;;;;5049820;28;20308;-75
2022/01/23 10:49:53;;;;;;;5.87;3.63;;;6.60;99.90;;;;;;5071051;28;20202;-74
2022/01/23 10:52:29;;;;;;;3.67;3.00;;;6.60;99.90;;;;;;5068071;28;20198;-74
2022/01/23 10:54:56;;;;;;;4.10;2.90;;;6.60;99.90;;;;;;5076442;28;20190;-74
2022/01/23 10:57:22;;;;;;;5.37;3.60;;;6.60;99.90;;;;;;5068171;28;20175;-74
2022/01/23 10:59:50;;;;;;;4.13;3.23;;;6.70;99.90;;;;;;5068486;28;20209;-75
2022/01/23 11:02:23;;;;;;;6.53;3.20;;;6.70;99.90;;;;;;5073096;28;20707;-74
2022/01/23 11:04:50;;;;;;;4.80;3.53;;;6.80;99.90;;;;;;5083385;28;20238;-74
2022/01/23 11:07:16;;;;;;;4.67;2.67;;;6.80;99.90;;;;;;5070081;28;20301;-74
2022/01/23 11:09:41;;;;;;;4.57;3.27;;;6.80;99.90;;;;;;5088139;28;20314;-74
2022/01/23 11:12:26;;;;;;;7.10;3.80;;;6.80;99.90;;;;;;5081176;28;20269;-74
2022/01/23 11:17:50;;;;;;;6.03;3.70;;;6.90;99.90;;;;;;5075911;28;20186;-74
2022/01/23 11:20:33;;;;;;;5.00;3.80;;;6.90;99.90;;;;;;5070977;28;20242;-74
2022/01/23 11:23:17;;;;;;;3.77;3.13;;;6.90;99.90;;;;;;5068228;28;20523;-75
2022/01/23 11:25:51;;;;;;;3.83;3.40;;;7.00;99.90;;;;;;5072201;28;20252;-74
2022/01/23 11:28:18;;;;;;;6.17;3.30;;;7.00;99.90;;;;;;5087011;28;20224;-74
2022/01/23 11:30:46;;;;;;;4.00;3.20;;;7.10;99.90;;;;;;5090411;28;20282;-74
2022/01/23 11:33:18;;;;;;;4.93;3.77;;;7.10;99.90;;;;;;5075336;28;20643;-74
2022/01/23 11:35:45;;;;;;;5.43;3.43;;;7.10;99.90;;;;;;5077874;28;20240;-74
2022/01/23 11:38:15;;;;;;;4.67;3.30;;;7.20;99.90;;;;;;5089178;28;20225;-74
2022/01/23 11:54:39;;;;;;;3.50;2.90;;;7.30;99.90;;;;;;5073432;28;20185;-74
2022/01/23 11:57:25;;;;;;;4.20;2.77;;;7.40;99.90;;;;;;5066775;28;20175;-74
2022/01/23 11:59:50;;;;;;;4.30;2.57;;;7.40;99.90;;;;;;5071247;28;20914;-75
2022/01/23 12:02:28;;;;;;;3.27;2.70;;;7.40;99.90;;;;;;5078889;28;20185;-74
2022/01/23 12:05:17;;;;;;;3.13;2.47;;;7.40;99.90;;;;;;5088687;28;20198;-74
2022/01/23 12:07:45;;;;;;;4.33;2.33;;;7.50;99.90;;;;;;5075331;28;20182;-74
2022/01/23 12:10:16;;;;;;;3.13;2.43;;;7.50;99.90;;;;;;5079973;28;20213;-75
2022/01/23 12:12:48;;;;;;;5.03;2.53;;;7.50;99.90;;;;;;5080001;28;20179;-75
2022/01/23 12:18:13;;;;;;;3.80;2.60;;;7.60;99.90;;;;;;5076568;28;20189;-74
2022/01/23 12:20:39;;;;;;;3.23;2.60;;;7.60;99.90;;;;;;5077409;28;20191;-75
2022/01/23 12:23:06;;;;;;;4.53;2.43;;;7.60;99.90;;;;;;5082507;28;20648;-75
2022/01/23 12:25:53;;;;;;;2.30;2.10;;;7.70;99.90;;;;;;5084561;28;20220;-75
2022/01/23 12:28:32;;;;;;;5.20;2.33;;;7.70;99.90;;;;;;5085443;28;20674;-74
2022/01/23 12:31:19;;;;;;;3.53;2.50;;;7.70;99.90;;;;;;5074214;28;20217;-75
2022/01/23 12:33:45;;;;;;;2.40;2.10;;;7.70;99.90;;;;;;5089403;28;20180;-74
2022/01/23 12:36:13;;;;;;;2.63;1.77;;;7.70;99.90;;;;;;5081383;28;20170;-75
2022/01/23 12:38:45;;;;;;;2.87;2.00;;;7.70;99.90;;;;;;5075668;28;20186;-74
2022/01/23 12:41:28;;;;;;;1.83;1.30;;;7.80;99.90;;;;;;5067039;28;20198;-75
2022/01/23 12:44:28;;;;;;;2.33;1.40;;;7.80;99.90;;;;;;5081809;28;20170;-75
2022/01/23 12:46:58;;;;;;;2.97;1.20;;;7.80;99.90;;;;;;5063901;28;20206;-74
2022/01/23 12:49:29;;;;;;;2.17;1.63;;;7.80;99.90;;;;;;5076843;28;20174;-75
2022/01/23 12:52:09;;;;;;;2.70;1.70;;;7.80;99.90;;;;;;5073632;28;20174;-75
2022/01/23 12:54:47;;;;;;;6.03;1.87;;;7.80;99.90;;;;;;5071618;28;20182;-74
2022/01/23 12:57:24;;;;;;;2.00;1.70;;;7.80;99.90;;;;;;5087935;28;20178;-75
2022/01/23 12:59:55;;;;;;;2.10;1.73;;;7.80;99.90;;;;;;5088386;28;20205;-74
2022/01/23 13:02:23;;;;;;;2.87;2.13;;;7.80;99.90;;;;;;5080619;28;20210;-75
2022/01/23 13:04:51;;;;;;;2.10;1.90;;;7.80;99.90;;;;;;5077230;28;20194;-75
2022/01/23 13:07:50;;;;;;;2.10;1.80;;;7.90;99.90;;;;;;5072626;28;20174;-75
2022/01/23 13:18:34;;;;;;;1.37;1.27;;;7.80;99.90;;;;;;5029745;28;20189;-74
2022/01/23 13:27:25;;;;;;;1.33;1.00;;;7.80;99.90;;;;;;5082831;28;20692;-74
2022/01/23 13:30:14;;;;;;;1.30;1.00;;;7.80;99.90;;;;;;5065589;28;20293;-74
2022/01/23 13:32:51;;;;;;;0.70;0.60;;;7.80;99.90;;;;;;5072832;28;20186;-75
2022/01/23 13:35:18;;;;;;;0.67;0.60;;;7.80;99.90;;;;;;5080766;28;20205;-75
2022/01/23 13:37:48;;;;;;;0.93;0.60;;;7.70;99.90;;;;;;5073603;28;20186;-75
2022/01/23 13:40:22;;;;;;;1.40;0.80;;;7.70;99.90;;;;;;5079688;28;20564;-74
2022/01/23 13:51:37;;;;;;;3.77;0.70;;;7.70;99.90;;;;;;5080154;28;20263;-75
2022/01/23 14:02:15;;;;;;;2.03;1.00;;;7.70;99.90;;;;;;5068491;28;20224;-75
2022/01/23 14:04:56;;;;;;;0.87;0.87;;;7.70;99.90;;;;;;5069210;28;20206;-75
2022/01/23 14:07:27;;;;;;;1.10;0.93;;;7.70;99.90;;;;;;5069443;28;20155;-75
2022/01/23 14:09:55;;;;;;;1.47;1.30;;;7.70;99.90;;;;;;5082720;28;20202;-75
2022/01/23 14:12:22;;;;;;;1.10;1.00;;;7.70;99.90;;;;;;5073363;28;20643;-75
2022/01/23 14:14:51;;;;;;;3.87;1.10;;;7.80;99.90;;;;;;5079980;28;20175;-75
2022/01/23 14:17:17;;;;;;;1.73;1.30;;;7.80;99.90;;;;;;5083224;28;20650;-75
2022/01/23 14:20:02;;;;;;;1.70;1.30;;;7.80;99.90;;;;;;5073034;28;20236;-75
2022/01/23 14:22:34;;;;;;;3.67;1.40;;;7.70;99.90;;;;;;5063698;28;20197;-75
2022/01/23 14:25:09;;;;;;;1.40;1.30;;;7.70;99.90;;;;;;5068544;28;20190;-75
2022/01/23 14:27:35;;;;;;;5.67;1.60;;;7.70;99.90;;;;;;5067250;28;20163;-75
2022/01/23 14:30:06;;;;;;;2.73;1.60;;;7.70;99.90;;;;;;5069927;28;20198;-78
2022/01/23 14:32:47;;;;;;;3.03;1.50;;;7.70;99.90;;;;;;5086519;28;20186;-74
2022/01/23 14:35:25;;;;;;;1.90;1.43;;;7.70;99.90;;;;;;5088277;28;20202;-75
2022/01/23 14:37:52;;;;;;;1.33;1.23;;;7.70;99.90;;;;;;5084775;28;20180;-75
2022/01/23 14:40:25;;;;;;;3.53;1.43;;;7.70;99.90;;;;;;5069997;28;20264;-74
2022/01/23 14:43:07;;;;;;;2.17;1.50;;;7.70;99.90;;;;;;5069971;28;20210;-75
2022/01/23 14:45:39;;;;;;;1.67;1.37;;;7.60;99.90;;;;;;5067629;28;20285;-75
2022/01/23 14:48:06;;;;;;;2.47;1.60;;;7.60;99.90;;;;;;5073304;28;20175;-75
2022/01/23 14:50:35;;;;;;;3.37;1.50;;;7.60;99.90;;;;;;5070010;28;20201;-75
2022/01/23 14:53:09;;;;;;;3.33;1.67;;;7.60;99.90;;;;;;5075520;28;20170;-75
2022/01/23 14:55:35;;;;;;;3.27;1.77;;;7.60;99.90;;;;;;5081286;28;20264;-74
2022/01/23 14:58:02;;;;;;;2.27;1.73;;;7.60;99.90;;;;;;5090755;28;20178;-75
2022/01/23 15:00:34;;;;;;;3.37;1.80;;;7.60;99.90;;;;;;5071136;28;20203;-75
2022/01/23 15:03:02;;;;;;;3.23;2.27;;;7.60;99.90;;;;;;5088310;28;20177;-75
2022/01/23 15:05:38;;;;;;;2.20;2.00;;;7.50;99.90;;;;;;5090195;28;20226;-75
2022/01/23 15:08:07;;;;;;;2.23;2.03;;;7.50;99.90;;;;;;5073249;28;20182;-74
2022/01/23 15:10:34;;;;;;;4.33;2.20;;;7.50;99.90;;;;;;5078472;28;20191;-74
2022/01/23 15:13:00;;;;;;;2.60;2.40;;;7.50;99.90;;;;;;5085539;28;20175;-75
2022/01/23 15:15:25;;;;;;;2.77;2.43;;;7.50;99.90;;;;;;5053961;28;20206;-75
2022/01/23 15:17:51;;;;;;;3.00;2.40;;;7.50;99.90;;;;;;5062013;28;20224;-75
2022/01/23 15:20:17;;;;;;;3.27;2.07;;;7.40;99.90;;;;;;5073947;28;20294;-75
2022/01/23 15:22:44;;;;;;;2.80;2.10;;;7.40;99.90;;;;;;5075550;28;20254;-75
2022/01/23 15:25:12;;;;;;;2.57;2.37;;;7.40;99.90;;;;;;5083495;28;20702;-75
2022/01/23 15:27:38;;;;;;;4.10;2.17;;;7.40;99.90;;;;;;5088871;28;20223;-75
2022/01/23 15:30:06;;;;;;;5.03;2.30;;;7.40;99.90;;;;;;5091686;28;20190;-74
2022/01/23 15:32:32;;;;;;;6.90;2.60;;;7.40;99.90;;;;;;5081189;28;20183;-74
2022/01/23 15:34:57;;;;;;;2.63;2.40;;;7.40;99.90;;;;;;5073986;28;20181;-74
2022/01/23 15:37:23;;;;;;;2.73;2.40;;;7.40;99.90;;;;;;5078682;28;20173;-75
2022/01/23 15:39:50;;;;;;;4.37;2.20;;;7.40;99.90;;;;;;5092184;28;20200;-75
2022/01/23 15:42:16;;;;;;;2.30;1.87;;;7.30;99.90;;;;;;5074126;28;20187;-75
2022/01/23 15:44:42;;;;;;;2.50;2.30;;;7.30;99.90;;;;;;5072625;28;20203;-75
2022/01/23 15:47:08;;;;;;;3.77;2.50;;;7.30;99.90;;;;;;5090689;28;20170;-74
2022/01/23 15:49:33;;;;;;;2.80;2.50;;;7.30;99.90;;;;;;5084213;28;20194;-74
2022/01/23 15:51:59;;;;;;;3.30;2.53;;;7.30;99.90;;;;;;5072590;28;20167;-74
2022/01/23 15:54:25;;;;;;;3.57;2.87;;;7.30;99.90;;;;;;5073776;28;20263;-74
2022/01/23 15:56:52;;;;;;;5.67;2.83;;;7.30;99.90;;;;;;5094037;28;20167;-74
2022/01/23 15:59:18;;;;;;;4.10;2.20;;;7.30;99.90;;;;;;5091916;28;20650;-74
2022/01/23 16:01:46;;;;;;;4.57;2.90;;;7.30;99.90;;;;;;5092926;28;20191;-74
2022/01/23 16:04:13;;;;;;;5.03;2.97;;;7.20;99.90;;;;;;5092553;28;20177;-74
2022/01/23 16:06:39;;;;;;;3.67;2.83;;;7.20;99.90;;;;;;5076473;28;20218;-74
2022/01/23 16:09:06;;;;;;;2.93;2.43;;;7.30;99.90;;;;;;5071045;28;20182;-74
2022/01/23 16:11:31;;;;;;;4.13;3.10;;;7.20;99.90;;;;;;5072931;28;20195;-74
2022/01/23 16:13:57;;;;;;;3.40;2.77;;;7.20;99.90;;;;;;5082335;28;20171;-75
2022/01/23 16:16:23;;;;;;;4.03;2.90;;;7.20;99.90;;;;;;5068724;28;20186;-74
2022/01/23 16:18:48;;;;;;;3.53;2.70;;;7.20;99.90;;;;;;5075615;28;20175;-74
2022/01/23 16:21:14;;;;;;;6.37;3.80;;;7.20;99.90;;;;;;5072336;28;20275;-74
2022/01/23 16:23:41;;;;;;;5.23;3.60;;;7.20;99.90;;;;;;5080736;28;20200;-74
2022/01/23 16:26:06;;;;;;;4.73;3.70;;;7.10;99.90;;;;;;5080751;28;20198;-74
2022/01/23 16:28:32;;;;;;;9.53;4.73;;;7.10;99.90;;;;;;5070807;28;20175;-74
2022/01/23 16:30:59;;;;;;;6.73;4.10;;;7.10;99.90;;;;;;5071343;28;20293;-74